Time;durP1;ratioP1;P1;durP2;ratioP2;P2;SDS_P1;SDS_P2;PMS_P1;PMS_P2;Temp;Humidity;BMP_temperature;BMP_pressure;BME280_temperature;BME280_humidity;BME280_pressure;Samples;Min_cycle;Max_cycle;Signal;HPM_P1;HPM_P2
2023/02/19 00:01:34;;;;;;;12.50;9.05;;;8.00;99.90;;;;;;5071293;28;20388;-93
2023/02/19 00:04:06;;;;;;;11.55;9.52;;;8.10;99.90;;;;;;5071806;28;20020;-90
2023/02/19 00:06:32;;;;;;;12.38;10.18;;;7.90;99.90;;;;;;5071528;28;20029;-89
2023/02/19 00:08:58;;;;;;;10.77;9.68;;;8.10;99.90;;;;;;5070090;28;20025;-89
2023/02/19 00:11:27;;;;;;;12.68;10.25;;;8.20;99.90;;;;;;5071589;28;20041;-90
2023/02/19 00:13:56;;;;;;;10.57;9.48;;;8.10;99.90;;;;;;5072033;28;20016;-89
2023/02/19 00:16:24;;;;;;;10.52;9.32;;;8.20;99.90;;;;;;5072607;28;20066;-89
2023/02/19 00:18:51;;;;;;;14.32;10.32;;;8.10;99.90;;;;;;5072662;28;20392;-90
2023/02/19 00:21:17;;;;;;;14.27;11.30;;;8.10;99.90;;;;;;5070369;28;20115;-89
2023/02/19 00:23:51;;;;;;;12.38;11.00;;;8.20;99.90;;;;;;5072044;28;20016;-90
2023/02/19 00:26:17;;;;;;;13.98;10.40;;;8.20;99.90;;;;;;5071941;28;20024;-88
2023/02/19 00:28:42;;;;;;;11.27;10.07;;;8.20;99.90;;;;;;5070788;28;20044;-90
2023/02/19 00:31:17;;;;;;;13.10;11.07;;;8.10;99.90;;;;;;5071592;28;20794;-89
2023/02/19 00:33:43;;;;;;;12.52;10.70;;;8.00;99.90;;;;;;5052061;28;20033;-89
2023/02/19 00:36:09;;;;;;;12.95;10.57;;;8.20;99.90;;;;;;5051767;28;20036;-89
2023/02/19 00:38:36;;;;;;;11.63;10.43;;;8.10;99.90;;;;;;5050706;28;20534;-89
2023/02/19 00:41:18;;;;;;;12.55;10.60;;;8.10;99.90;;;;;;5050573;28;20082;-89
2023/02/19 00:43:55;;;;;;;12.20;10.95;;;8.20;99.90;;;;;;5053159;28;20473;-89
2023/02/19 00:46:33;;;;;;;13.02;11.20;;;8.20;99.90;;;;;;5055131;28;20025;-89
2023/02/19 00:48:59;;;;;;;12.10;10.43;;;8.30;99.90;;;;;;5054058;28;20075;-89
2023/02/19 00:51:28;;;;;;;13.35;10.98;;;8.30;99.90;;;;;;5053877;28;20485;-89
2023/02/19 00:53:54;;;;;;;12.05;10.23;;;8.40;99.90;;;;;;5055018;28;20021;-89
2023/02/19 00:56:19;;;;;;;12.02;10.52;;;8.40;99.90;;;;;;5070723;28;20404;-89
2023/02/19 00:58:46;;;;;;;11.23;9.68;;;8.30;99.90;;;;;;5075153;28;20017;-89
2023/02/19 01:01:12;;;;;;;9.32;8.38;;;8.20;99.90;;;;;;5073788;28;20067;-88
2023/02/19 01:03:38;;;;;;;11.25;9.05;;;8.20;99.90;;;;;;5073983;28;20043;-89
2023/02/19 01:06:05;;;;;;;9.38;8.45;;;8.10;99.90;;;;;;5074696;28;20473;-89
2023/02/19 01:08:31;;;;;;;11.35;9.88;;;8.10;99.90;;;;;;5074898;28;20028;-89
2023/02/19 01:10:57;;;;;;;12.60;10.10;;;8.10;99.90;;;;;;5073765;28;20161;-90
2023/02/19 01:13:23;;;;;;;10.50;8.77;;;8.10;99.90;;;;;;5073956;28;20107;-89
2023/02/19 01:15:49;;;;;;;9.90;8.90;;;8.50;99.90;;;;;;5074660;28;20193;-89
2023/02/19 01:18:14;;;;;;;11.98;9.98;;;8.60;99.90;;;;;;5073806;28;20024;-89
2023/02/19 01:20:42;;;;;;;12.38;10.18;;;8.40;99.90;;;;;;5075530;28;20035;-90
2023/02/19 01:23:10;;;;;;;13.52;11.02;;;8.30;99.90;;;;;;5074141;28;20025;-89
2023/02/19 01:25:40;;;;;;;11.50;9.85;;;8.00;99.90;;;;;;5074962;28;20029;-89
2023/02/19 01:28:05;;;;;;;13.23;10.25;;;7.90;99.90;;;;;;5074835;28;20094;-89
2023/02/19 01:30:37;;;;;;;11.10;9.75;;;7.80;99.90;;;;;;5074329;28;20365;-89
2023/02/19 01:33:07;;;;;;;10.80;9.05;;;7.90;99.90;;;;;;5074267;28;20036;-89
2023/02/19 01:35:33;;;;;;;13.60;10.13;;;8.00;99.90;;;;;;5074156;28;20029;-89
2023/02/19 01:37:59;;;;;;;11.73;10.05;;;8.20;99.90;;;;;;5073094;28;20025;-89
2023/02/19 01:40:25;;;;;;;11.50;10.25;;;8.10;99.90;;;;;;5074459;28;20403;-89
2023/02/19 01:42:51;;;;;;;10.50;9.38;;;8.00;99.90;;;;;;5074205;28;20044;-89
2023/02/19 01:45:24;;;;;;;16.60;10.13;;;8.20;99.90;;;;;;5073011;28;20025;-89
2023/02/19 01:47:57;;;;;;;15.15;10.68;;;8.20;99.90;;;;;;5073069;28;20480;-89
2023/02/19 01:50:26;;;;;;;14.35;11.32;;;8.20;99.90;;;;;;5073759;28;20025;-90
2023/02/19 01:52:52;;;;;;;13.75;11.15;;;8.10;99.90;;;;;;5074166;28;20036;-89
2023/02/19 01:55:19;;;;;;;12.88;10.90;;;8.00;99.90;;;;;;5063182;28;20027;-89
2023/02/19 01:57:51;;;;;;;16.70;10.85;;;8.20;99.90;;;;;;5053961;28;20550;-89
2023/02/19 02:00:17;;;;;;;13.73;11.20;;;8.30;99.90;;;;;;5054337;28;20036;-89
2023/02/19 02:02:48;;;;;;;15.68;11.20;;;8.20;99.90;;;;;;5053827;28;20507;-89
2023/02/19 02:05:36;;;;;;;16.40;11.98;;;8.10;99.90;;;;;;5052634;28;20362;-89
2023/02/19 02:10:46;;;;;;;14.15;11.77;;;8.20;99.90;;;;;;5054112;28;20174;-89
2023/02/19 02:13:12;;;;;;;13.27;11.45;;;8.30;99.90;;;;;;5053405;28;20108;-89
2023/02/19 02:15:46;;;;;;;14.55;11.00;;;8.20;99.90;;;;;;5052410;28;20033;-89
2023/02/19 02:18:25;;;;;;;14.13;11.38;;;8.20;99.90;;;;;;5053450;28;20029;-89
2023/02/19 02:21:16;;;;;;;12.77;11.10;;;8.20;99.90;;;;;;5053697;28;20032;-89
2023/02/19 02:24:11;;;;;;;15.25;11.18;;;8.20;99.90;;;;;;5053743;28;20075;-89
2023/02/19 02:26:55;;;;;;;13.90;12.35;;;8.20;99.90;;;;;;5054165;28;20044;-89
2023/02/19 02:29:35;;;;;;;14.63;12.70;;;8.30;99.90;;;;;;5053900;28;20032;-89
2023/02/19 02:32:25;;;;;;;21.42;15.57;;;8.30;99.90;;;;;;5067313;28;20032;-89
2023/02/19 02:35:04;;;;;;;15.75;12.70;;;8.40;99.90;;;;;;5093737;28;20024;-89
2023/02/19 02:37:34;;;;;;;16.38;13.52;;;8.40;99.90;;;;;;5093693;28;20036;-89
2023/02/19 02:40:02;;;;;;;16.70;13.48;;;8.40;99.90;;;;;;5092156;28;20016;-89
2023/02/19 02:42:27;;;;;;;16.13;13.68;;;8.50;99.90;;;;;;5093291;28;20482;-90
2023/02/19 02:47:48;;;;;;;16.75;14.55;;;8.50;99.90;;;;;;5092965;28;20093;-89
2023/02/19 02:50:40;;;;;;;15.05;13.43;;;8.50;99.90;;;;;;5093148;28;20024;-89
2023/02/19 02:55:59;;;;;;;15.32;13.32;;;8.80;99.90;;;;;;5037046;28;20052;-89
2023/02/19 02:58:26;;;;;;;14.60;12.48;;;8.70;99.90;;;;;;5030955;28;20033;-90
2023/02/19 03:04:01;;;;;;;14.88;12.75;;;8.60;99.90;;;;;;4971921;28;20051;-90
2023/02/19 03:06:31;;;;;;;14.75;13.20;;;8.60;99.90;;;;;;4971554;28;20035;-90
2023/02/19 03:09:20;;;;;;;16.85;13.05;;;8.60;99.90;;;;;;4971916;28;20031;-89
2023/02/19 03:20:25;;;;;;;14.15;12.52;;;8.80;99.90;;;;;;4972037;28;20029;-88
2023/02/19 03:22:53;;;;;;;16.60;12.48;;;8.80;99.90;;;;;;4971648;28;20517;-89
2023/02/19 03:28:10;;;;;;;13.10;11.52;;;8.60;99.90;;;;;;4972329;28;20070;-90
2023/02/19 03:30:41;;;;;;;13.13;11.60;;;8.60;99.90;;;;;;4999422;28;20052;-89
2023/02/19 03:33:12;;;;;;;13.80;11.70;;;8.70;99.90;;;;;;4995151;28;20109;-89
2023/02/19 03:35:43;;;;;;;13.93;11.98;;;8.70;99.90;;;;;;4991617;28;20030;-90
2023/02/19 03:38:17;;;;;;;13.52;12.13;;;8.90;99.90;;;;;;4991079;28;20490;-89
2023/02/19 03:41:01;;;;;;;12.98;11.05;;;9.00;99.90;;;;;;5024757;28;20036;-89
2023/02/19 03:43:51;;;;;;;11.82;10.63;;;8.80;99.90;;;;;;5072367;28;20166;-89
2023/02/19 03:46:26;;;;;;;14.20;11.30;;;8.70;99.90;;;;;;5072359;28;20025;-90
2023/02/19 03:49:05;;;;;;;12.38;10.25;;;8.90;99.90;;;;;;5070727;28;20396;-89
2023/02/19 03:51:50;;;;;;;12.15;10.63;;;8.70;99.90;;;;;;5072692;28;20091;-90
2023/02/19 03:54:31;;;;;;;11.30;10.02;;;8.70;99.90;;;;;;5071981;28;20031;-89
2023/02/19 03:57:11;;;;;;;12.23;10.73;;;8.90;99.90;;;;;;5072016;28;20068;-89
2023/02/19 03:59:54;;;;;;;12.70;11.13;;;8.80;99.90;;;;;;5070513;28;20109;-89
2023/02/19 04:02:25;;;;;;;13.98;11.40;;;8.90;99.90;;;;;;5072087;28;20029;-89
2023/02/19 04:05:00;;;;;;;13.27;11.43;;;8.90;99.90;;;;;;5072302;28;20070;-89
2023/02/19 04:07:30;;;;;;;13.45;11.77;;;9.00;99.90;;;;;;5072016;28;20039;-89
2023/02/19 04:09:56;;;;;;;13.50;12.18;;;8.90;99.90;;;;;;5072210;28;20029;-89
2023/02/19 04:12:22;;;;;;;13.95;12.48;;;9.00;99.90;;;;;;5070726;28;20157;-89
2023/02/19 04:14:53;;;;;;;13.43;11.80;;;8.90;99.90;;;;;;5070482;28;20021;-89
2023/02/19 04:17:31;;;;;;;13.90;12.07;;;8.90;99.90;;;;;;5072056;28;20049;-89
2023/02/19 04:19:59;;;;;;;14.13;12.35;;;9.00;99.90;;;;;;5075275;28;20029;-89
2023/02/19 04:22:25;;;;;;;15.48;12.15;;;9.00;99.90;;;;;;5074609;28;20117;-88
2023/02/19 04:24:54;;;;;;;13.50;12.07;;;8.90;99.90;;;;;;5075857;28;20539;-89
2023/02/19 04:27:20;;;;;;;14.80;12.15;;;8.90;99.90;;;;;;5074380;28;20476;-89
2023/02/19 04:29:45;;;;;;;13.55;12.13;;;9.00;99.90;;;;;;5073919;28;20031;-89
2023/02/19 04:32:12;;;;;;;14.23;11.32;;;9.00;99.90;;;;;;5075575;28;20542;-90
2023/02/19 04:34:38;;;;;;;13.30;11.90;;;8.90;99.90;;;;;;5075873;28;20046;-89
2023/02/19 04:37:04;;;;;;;13.95;12.00;;;8.80;99.90;;;;;;5075550;28;20036;-89
2023/02/19 04:39:29;;;;;;;12.77;11.25;;;8.80;99.90;;;;;;5075889;28;20017;-89
2023/02/19 04:41:55;;;;;;;12.75;11.32;;;8.70;99.90;;;;;;5074518;28;20147;-89
2023/02/19 04:44:21;;;;;;;12.80;11.18;;;8.80;99.90;;;;;;5075296;28;20392;-89
2023/02/19 04:46:46;;;;;;;13.23;11.55;;;8.80;99.90;;;;;;5074304;28;20024;-89
2023/02/19 04:49:12;;;;;;;14.13;11.75;;;8.70;99.90;;;;;;5074125;28;20038;-89
2023/02/19 04:51:38;;;;;;;13.40;11.52;;;8.90;99.90;;;;;;5072809;28;20056;-89
2023/02/19 04:54:04;;;;;;;13.20;11.27;;;8.90;99.90;;;;;;5074076;28;20032;-89
2023/02/19 04:56:30;;;;;;;13.93;11.75;;;9.00;99.90;;;;;;5075066;28;20033;-89
2023/02/19 04:58:55;;;;;;;12.52;11.00;;;9.00;99.90;;;;;;5073768;28;20388;-89
2023/02/19 05:01:21;;;;;;;12.60;11.30;;;9.00;99.90;;;;;;5075057;28;20028;-89
2023/02/19 05:03:46;;;;;;;12.95;11.07;;;9.30;99.90;;;;;;5075122;28;20028;-90
2023/02/19 05:06:13;;;;;;;13.57;11.15;;;9.20;99.90;;;;;;5075269;28;20033;-89
2023/02/19 05:08:39;;;;;;;13.45;11.13;;;9.40;99.90;;;;;;5074846;28;20020;-90
2023/02/19 05:11:06;;;;;;;14.05;11.52;;;9.20;99.90;;;;;;5073711;28;20059;-90
2023/02/19 05:13:32;;;;;;;14.18;11.55;;;8.90;99.90;;;;;;5074734;28;20028;-88
2023/02/19 05:16:01;;;;;;;13.50;11.50;;;9.00;99.90;;;;;;5073384;28;20047;-89
2023/02/19 05:18:29;;;;;;;17.42;14.32;;;9.00;99.90;;;;;;5074518;28;20028;-89
2023/02/19 05:20:57;;;;;;;15.18;13.48;;;9.10;99.90;;;;;;5074603;28;20024;-90
2023/02/19 05:23:23;;;;;;;17.17;14.45;;;9.10;99.90;;;;;;5074754;28;20028;-89
2023/02/19 05:25:49;;;;;;;16.02;13.65;;;9.30;99.90;;;;;;5074216;28;20052;-89
2023/02/19 05:28:16;;;;;;;16.08;13.55;;;9.10;99.90;;;;;;5073466;28;20067;-90
2023/02/19 05:30:50;;;;;;;17.08;12.55;;;9.10;99.90;;;;;;5074532;28;20028;-90
2023/02/19 05:33:18;;;;;;;14.43;12.85;;;8.90;99.90;;;;;;5074831;28;20063;-89
2023/02/19 05:35:46;;;;;;;16.08;12.27;;;9.20;99.90;;;;;;5073171;28;20037;-90
2023/02/19 05:38:12;;;;;;;14.07;12.13;;;9.20;99.90;;;;;;5074285;28;20036;-90
2023/02/19 05:40:38;;;;;;;14.18;12.45;;;9.30;99.90;;;;;;5074110;28;20074;-90
2023/02/19 05:43:05;;;;;;;13.60;11.82;;;9.20;99.90;;;;;;5073985;28;20036;-89
2023/02/19 05:45:31;;;;;;;15.68;12.98;;;9.30;99.90;;;;;;5074101;28;20039;-90
2023/02/19 05:47:57;;;;;;;14.82;11.73;;;9.30;99.90;;;;;;5073182;28;20056;-89
2023/02/19 05:50:23;;;;;;;13.05;11.38;;;9.30;99.90;;;;;;5073864;28;20055;-89
2023/02/19 05:52:48;;;;;;;13.77;12.32;;;9.30;99.90;;;;;;5072570;28;20036;-90
2023/02/19 05:55:14;;;;;;;13.85;12.23;;;9.30;99.90;;;;;;5073304;28;20429;-90
2023/02/19 05:57:41;;;;;;;12.82;11.38;;;9.30;99.90;;;;;;5072572;28;20024;-90
2023/02/19 06:00:17;;;;;;;13.30;11.38;;;9.20;99.90;;;;;;5074086;28;20039;-89
2023/02/19 06:02:43;;;;;;;14.25;10.95;;;9.10;99.90;;;;;;5072669;28;20027;-90
2023/02/19 06:05:09;;;;;;;12.88;11.30;;;9.00;99.90;;;;;;5073704;28;20025;-89
2023/02/19 06:07:38;;;;;;;12.32;10.93;;;8.90;99.90;;;;;;5072660;28;20502;-89
2023/02/19 06:10:05;;;;;;;13.60;11.07;;;8.90;99.90;;;;;;5073296;28;20024;-89
2023/02/19 06:12:30;;;;;;;13.55;11.38;;;8.90;99.90;;;;;;5073579;28;20503;-89
2023/02/19 06:14:56;;;;;;;14.70;11.98;;;9.00;99.90;;;;;;5072227;28;20059;-90
2023/02/19 06:17:21;;;;;;;13.52;11.75;;;8.80;99.90;;;;;;5072267;28;20029;-89
2023/02/19 06:19:47;;;;;;;13.45;11.85;;;8.90;99.90;;;;;;5072074;28;20216;-90
2023/02/19 06:22:14;;;;;;;12.93;11.52;;;8.90;99.90;;;;;;5072117;28;20028;-89
2023/02/19 06:24:40;;;;;;;14.35;12.13;;;8.90;99.90;;;;;;5073085;28;20104;-89
2023/02/19 06:27:06;;;;;;;13.00;11.10;;;8.90;99.90;;;;;;5073941;28;20052;-89
2023/02/19 06:29:32;;;;;;;14.85;12.38;;;8.80;99.90;;;;;;5073087;28;20543;-89
2023/02/19 06:31:59;;;;;;;13.70;12.15;;;8.60;99.90;;;;;;5079702;28;20055;-90
2023/02/19 06:34:25;;;;;;;14.35;12.57;;;8.50;99.90;;;;;;5093550;28;20024;-90
2023/02/19 06:36:51;;;;;;;15.05;13.50;;;8.40;99.90;;;;;;5092432;28;20031;-89
2023/02/19 06:39:16;;;;;;;15.55;13.90;;;8.20;99.90;;;;;;5093222;28;20081;-90
2023/02/19 06:41:42;;;;;;;14.88;13.18;;;8.10;99.90;;;;;;5092693;28;20055;-89
2023/02/19 06:44:08;;;;;;;14.75;13.25;;;8.20;99.90;;;;;;5093584;28;20437;-90
2023/02/19 06:46:34;;;;;;;15.05;13.45;;;8.40;99.90;;;;;;5093501;28;20384;-88
2023/02/19 06:49:02;;;;;;;15.25;13.15;;;8.40;99.90;;;;;;5092032;28;20503;-90
2023/02/19 06:51:28;;;;;;;15.20;13.18;;;8.50;99.90;;;;;;5093454;28;20027;-89
2023/02/19 06:53:54;;;;;;;14.35;12.32;;;8.60;99.90;;;;;;5092855;28;20028;-88
2023/02/19 06:56:23;;;;;;;14.13;12.38;;;8.60;99.90;;;;;;5093076;28;20035;-89
2023/02/19 06:58:50;;;;;;;14.52;12.80;;;8.60;99.90;;;;;;5093564;28;20028;-89
2023/02/19 07:01:16;;;;;;;14.25;12.75;;;8.70;99.90;;;;;;5091914;28;20059;-90
2023/02/19 07:03:41;;;;;;;14.02;12.32;;;8.80;99.90;;;;;;5092992;28;20181;-89
2023/02/19 07:06:07;;;;;;;13.70;12.20;;;8.80;99.90;;;;;;5091986;28;20108;-90
2023/02/19 07:08:32;;;;;;;13.98;12.55;;;8.80;99.90;;;;;;5091488;28;20035;-89
2023/02/19 07:10:58;;;;;;;13.63;12.23;;;8.90;99.90;;;;;;5093123;28;20016;-89
2023/02/19 07:13:25;;;;;;;15.60;12.80;;;9.20;99.90;;;;;;5092861;28;20089;-89
2023/02/19 07:15:56;;;;;;;14.00;12.55;;;9.30;99.90;;;;;;5093075;28;20102;-89
2023/02/19 07:18:22;;;;;;;14.40;12.10;;;9.30;99.90;;;;;;5092782;28;20028;-89
2023/02/19 07:20:47;;;;;;;14.70;12.68;;;9.20;99.90;;;;;;5092690;28;20024;-89
2023/02/19 07:23:13;;;;;;;13.90;12.52;;;9.30;99.90;;;;;;5091083;28;20035;-90
2023/02/19 07:25:39;;;;;;;14.60;13.07;;;9.20;99.90;;;;;;5091590;28;20062;-89
2023/02/19 07:28:05;;;;;;;14.23;12.27;;;9.20;99.90;;;;;;5092713;28;20028;-90
2023/02/19 07:30:31;;;;;;;13.65;12.25;;;9.10;99.90;;;;;;5091376;28;20016;-89
2023/02/19 07:32:56;;;;;;;13.73;12.32;;;9.00;99.90;;;;;;5076227;28;20036;-89
2023/02/19 07:35:22;;;;;;;13.80;12.30;;;9.10;99.90;;;;;;5071697;28;20028;-90
2023/02/19 07:37:47;;;;;;;15.27;12.98;;;9.10;99.90;;;;;;5072843;28;20044;-90
2023/02/19 07:40:13;;;;;;;17.80;12.50;;;9.20;99.90;;;;;;5072964;28;20024;-90
2023/02/19 07:42:39;;;;;;;15.90;13.05;;;9.40;99.90;;;;;;5070881;28;20507;-90
2023/02/19 07:45:05;;;;;;;13.77;12.43;;;9.50;99.90;;;;;;5071626;28;20078;-89
2023/02/19 07:47:31;;;;;;;14.15;12.65;;;9.60;99.90;;;;;;5071952;28;20025;-89
2023/02/19 07:49:56;;;;;;;14.73;13.02;;;9.60;99.90;;;;;;5072501;28;20029;-90
2023/02/19 07:52:22;;;;;;;14.20;12.77;;;9.80;99.90;;;;;;5070519;28;20056;-90
2023/02/19 07:54:48;;;;;;;21.30;17.75;;;9.50;99.90;;;;;;5074218;28;20019;-90
2023/02/19 07:57:13;;;;;;;15.18;13.57;;;9.40;99.90;;;;;;5074875;28;20546;-90
2023/02/19 07:59:39;;;;;;;15.95;14.20;;;9.60;99.90;;;;;;5076496;28;20871;-89
2023/02/19 08:05:00;;;;;;;14.98;13.38;;;9.60;99.90;;;;;;5075866;28;20627;-92
2023/02/19 08:07:33;;;;;;;15.48;13.48;;;9.60;99.90;;;;;;5076163;28;20105;-92
2023/02/19 08:13:19;;;;;;;15.63;12.90;;;9.70;99.90;;;;;;5034751;28;20038;-92
2023/02/19 08:15:50;;;;;;;14.23;12.75;;;9.70;99.90;;;;;;5034534;28;20049;-92
2023/02/19 08:18:18;;;;;;;14.48;12.93;;;9.70;99.90;;;;;;5034526;28;20029;-92
2023/02/19 08:20:43;;;;;;;14.90;13.30;;;9.80;99.90;;;;;;5017739;28;20464;-93
2023/02/19 08:23:10;;;;;;;16.08;13.55;;;9.80;99.90;;;;;;5032291;28;20045;-85
2023/02/19 08:25:37;;;;;;;14.70;13.18;;;10.00;99.90;;;;;;5033215;28;20033;-86
2023/02/19 08:28:04;;;;;;;16.23;13.75;;;10.20;99.90;;;;;;5033091;28;20501;-85
2023/02/19 08:30:31;;;;;;;16.45;13.77;;;10.30;99.90;;;;;;5033362;28;20045;-87
2023/02/19 08:32:58;;;;;;;15.60;13.10;;;10.30;99.90;;;;;;5016068;28;20040;-85
2023/02/19 08:35:24;;;;;;;17.63;14.05;;;10.40;99.90;;;;;;5032202;28;20028;-86
2023/02/19 08:37:49;;;;;;;15.93;13.77;;;10.40;99.90;;;;;;5033565;28;20037;-86
2023/02/19 08:40:15;;;;;;;15.18;13.43;;;10.40;99.90;;;;;;5032323;28;20026;-85
2023/02/19 08:42:41;;;;;;;15.20;13.70;;;10.30;99.90;;;;;;5032688;28;20127;-85
2023/02/19 08:45:07;;;;;;;15.40;13.82;;;10.50;99.90;;;;;;5033070;28;20029;-86
2023/02/19 08:47:35;;;;;;;15.77;14.18;;;10.40;99.90;;;;;;5032899;28;20033;-84
2023/02/19 08:50:01;;;;;;;17.02;15.30;;;10.30;99.90;;;;;;5057275;28;20044;-85
2023/02/19 08:52:27;;;;;;;17.10;15.40;;;10.30;99.90;;;;;;5075197;28;20085;-85
2023/02/19 08:54:52;;;;;;;17.35;15.52;;;10.20;99.90;;;;;;5074101;28;20059;-86
2023/02/19 08:57:18;;;;;;;16.73;14.65;;;10.40;99.90;;;;;;5074743;28;20087;-88
2023/02/19 08:59:44;;;;;;;19.08;15.20;;;10.60;99.90;;;;;;5074692;28;20024;-85
2023/02/19 09:02:11;;;;;;;17.75;15.80;;;10.70;99.90;;;;;;5074281;28;20369;-87
2023/02/19 09:04:38;;;;;;;18.60;16.13;;;10.50;99.90;;;;;;5074557;28;20024;-86
2023/02/19 09:07:09;;;;;;;19.02;15.70;;;10.30;99.90;;;;;;5074915;28;20024;-83
2023/02/19 09:09:39;;;;;;;18.17;16.23;;;10.40;99.90;;;;;;5074388;28;20037;-81
2023/02/19 09:12:06;;;;;;;17.73;15.88;;;10.50;99.90;;;;;;5074235;28;20020;-85
2023/02/19 09:14:33;;;;;;;18.98;16.35;;;10.70;99.90;;;;;;5074829;28;20036;-86
2023/02/19 09:16:59;;;;;;;22.55;16.70;;;10.80;99.90;;;;;;5073887;28;20032;-87
2023/02/19 09:19:25;;;;;;;19.30;16.65;;;11.00;99.90;;;;;;5073444;28;20025;-86
2023/02/19 09:21:50;;;;;;;19.90;17.60;;;11.00;99.90;;;;;;5073899;28;20017;-84
2023/02/19 09:24:16;;;;;;;19.30;16.55;;;11.30;99.90;;;;;;5074029;28;20047;-84
2023/02/19 09:26:42;;;;;;;29.70;16.70;;;11.40;99.90;;;;;;5072919;28;20020;-84
2023/02/19 09:29:07;;;;;;;18.27;13.52;;;11.70;99.90;;;;;;5073577;28;20037;-84
2023/02/19 09:31:33;;;;;;;19.70;17.27;;;12.30;99.90;;;;;;5074067;28;20024;-84
2023/02/19 09:33:59;;;;;;;18.83;16.85;;;12.50;99.90;;;;;;5073521;28;20366;-85
2023/02/19 09:36:25;;;;;;;20.52;17.42;;;12.90;99.90;;;;;;5074635;28;20170;-83
2023/02/19 09:38:51;;;;;;;26.55;16.73;;;13.80;99.90;;;;;;5073408;28;20035;-83
2023/02/19 09:41:45;;;;;;;18.52;15.60;;;14.00;99.90;;;;;;5073597;28;20047;-83
2023/02/19 09:44:31;;;;;;;16.73;14.30;;;15.00;99.90;;;;;;5073305;28;20052;-84
2023/02/19 09:46:59;;;;;;;20.48;14.45;;;16.80;99.90;;;;;;5073184;28;20028;-83
2023/02/19 09:49:48;;;;;;;18.58;14.18;;;19.00;99.90;;;;;;5073746;28;20032;-83
2023/02/19 09:52:40;;;;;;;13.35;11.95;;;19.30;99.90;;;;;;5073852;28;20043;-84
2023/02/19 09:55:41;;;;;;;14.70;12.77;;;19.30;99.90;;;;;;5060259;28;20030;-83
2023/02/19 09:58:25;;;;;;;19.38;13.60;;;18.20;99.90;;;;;;5051418;28;20045;-84
2023/02/19 10:00:53;;;;;;;14.02;12.63;;;19.20;99.90;;;;;;5058043;28;20132;-84
2023/02/19 10:03:33;;;;;;;14.30;12.90;;;18.20;99.90;;;;;;5070560;28;20027;-83
2023/02/19 10:06:06;;;;;;;12.95;11.65;;;18.30;99.90;;;;;;5078489;28;20036;-84
2023/02/19 10:08:33;;;;;;;13.57;11.82;;;19.50;99.90;;;;;;5070947;28;20408;-84
2023/02/19 10:11:01;;;;;;;12.88;11.52;;;20.20;99.90;;;;;;5071181;28;20028;-84
2023/02/19 10:13:34;;;;;;;11.85;10.65;;;21.40;99.90;;;;;;5071121;28;20091;-84
2023/02/19 10:16:04;;;;;;;10.50;9.48;;;22.40;99.90;;;;;;5069546;28;20020;-84
2023/02/19 10:18:38;;;;;;;13.25;11.15;;;21.00;99.90;;;;;;5070987;28;20028;-83
2023/02/19 10:21:05;;;;;;;18.15;16.30;;;19.70;99.90;;;;;;5071473;28;20146;-83
2023/02/19 10:23:30;;;;;;;10.98;9.98;;;18.60;99.90;;;;;;5070625;28;20055;-83
2023/02/19 10:25:58;;;;;;;11.50;10.50;;;18.60;99.90;;;;;;5071098;28;20500;-84
2023/02/19 10:28:34;;;;;;;11.35;10.15;;;19.80;99.90;;;;;;5070199;28;20055;-84
2023/02/19 10:31:02;;;;;;;12.05;10.73;;;20.40;99.90;;;;;;5070844;28;20082;-84
2023/02/19 10:33:28;;;;;;;11.82;10.73;;;20.70;99.90;;;;;;5063875;28;20052;-84
2023/02/19 10:36:06;;;;;;;10.95;9.85;;;20.30;99.90;;;;;;5052582;28;20404;-84
2023/02/19 10:38:39;;;;;;;12.32;10.15;;;19.50;99.90;;;;;;5082721;28;20468;-84
2023/02/19 10:41:20;;;;;;;12.18;10.00;;;19.40;99.90;;;;;;5092586;28;20044;-84
2023/02/19 10:44:05;;;;;;;9.25;8.40;;;18.60;99.90;;;;;;5077971;28;20032;-84
2023/02/19 10:46:40;;;;;;;7.40;6.70;;;18.40;99.90;;;;;;5072341;28;20104;-84
2023/02/19 10:49:25;;;;;;;6.82;6.22;;;17.50;99.90;;;;;;5072415;28;20021;-84
2023/02/19 10:51:52;;;;;;;5.88;5.25;;;17.30;99.90;;;;;;5072167;28;20036;-84
2023/02/19 10:54:19;;;;;;;6.32;5.72;;;16.90;99.90;;;;;;5071702;28;20078;-84
2023/02/19 10:56:45;;;;;;;7.10;6.40;;;16.00;99.90;;;;;;5071887;28;20037;-85
2023/02/19 10:59:17;;;;;;;7.35;6.65;;;15.50;99.90;;;;;;5071844;28;20383;-84
2023/02/19 11:02:02;;;;;;;6.97;6.28;;;15.10;99.90;;;;;;5072150;28;20060;-83
2023/02/19 11:04:33;;;;;;;6.28;5.63;;;14.90;99.90;;;;;;5071615;28;20101;-83
2023/02/19 11:07:29;;;;;;;3.40;3.10;;;14.70;99.90;;;;;;5072473;28;20530;-83
2023/02/19 11:09:55;;;;;;;3.90;3.50;;;14.40;99.90;;;;;;5067367;28;20079;-85
2023/02/19 11:12:32;;;;;;;3.50;2.80;;;14.30;99.90;;;;;;5071577;28;20089;-83
2023/02/19 11:15:24;;;;;;;3.75;3.35;;;14.40;99.90;;;;;;5071645;28;20531;-84
2023/02/19 11:17:58;;;;;;;8.63;5.70;;;14.30;99.90;;;;;;5067661;28;20032;-83
2023/02/19 11:20:25;;;;;;;6.97;6.28;;;14.30;99.90;;;;;;5071414;28;20090;-84
2023/02/19 11:22:55;;;;;;;6.25;5.22;;;14.30;99.90;;;;;;5071583;28;20048;-84
2023/02/19 11:25:24;;;;;;;4.88;4.47;;;14.00;99.90;;;;;;5070060;28;20085;-83
2023/02/19 11:27:57;;;;;;;9.07;6.47;;;13.80;99.90;;;;;;5068148;28;20502;-82
2023/02/19 11:30:29;;;;;;;8.30;7.13;;;13.70;99.90;;;;;;5064210;28;20025;-84
2023/02/19 11:32:54;;;;;;;7.03;6.32;;;13.70;99.90;;;;;;5070535;28;20480;-84
2023/02/19 11:35:24;;;;;;;9.40;8.23;;;13.80;99.90;;;;;;5071883;28;20021;-83
2023/02/19 11:37:58;;;;;;;9.05;7.10;;;13.80;99.90;;;;;;5071902;28;20072;-83
2023/02/19 11:40:54;;;;;;;7.18;5.88;;;13.60;99.90;;;;;;5071779;28;20028;-84
2023/02/19 11:43:29;;;;;;;7.20;6.10;;;13.60;99.90;;;;;;5071653;28;20045;-84
2023/02/19 11:46:08;;;;;;;8.65;7.72;;;13.60;99.90;;;;;;5071618;28;20435;-84
2023/02/19 11:48:48;;;;;;;5.60;4.80;;;13.50;99.90;;;;;;5066000;28;20042;-83
2023/02/19 11:51:20;;;;;;;5.57;5.07;;;13.50;99.90;;;;;;5071345;28;20040;-85
2023/02/19 11:53:53;;;;;;;6.00;5.45;;;13.40;99.90;;;;;;5070373;28;20103;-86
2023/02/19 11:56:40;;;;;;;7.25;5.50;;;13.40;99.90;;;;;;5071026;28;20090;-81
2023/02/19 11:59:17;;;;;;;6.25;5.65;;;13.40;99.90;;;;;;5071118;28;20056;-82
2023/02/19 12:02:15;;;;;;;8.52;5.60;;;13.40;99.90;;;;;;5072008;28;20064;-86
2023/02/19 12:04:53;;;;;;;7.10;5.15;;;13.50;99.90;;;;;;5070647;28;20511;-83
2023/02/19 12:07:32;;;;;;;5.72;4.70;;;13.50;99.90;;;;;;5070374;28;20511;-83
2023/02/19 12:10:10;;;;;;;5.25;4.43;;;13.60;99.90;;;;;;5070641;28;20028;-85
2023/02/19 12:12:51;;;;;;;9.38;6.13;;;13.60;99.90;;;;;;5071028;28;20027;-85
2023/02/19 12:15:28;;;;;;;6.57;4.30;;;13.70;99.90;;;;;;5071291;28;20776;-83
2023/02/19 12:18:13;;;;;;;3.70;2.60;;;13.80;99.90;;;;;;5067329;28;20045;-84
2023/02/19 12:20:50;;;;;;;3.58;3.08;;;14.00;99.90;;;;;;5071188;28;20024;-85
2023/02/19 12:23:35;;;;;;;3.10;2.50;;;14.20;99.90;;;;;;5071069;28;20025;-84
2023/02/19 12:26:27;;;;;;;2.33;2.13;;;13.90;99.90;;;;;;5051206;28;20570;-82
2023/02/19 12:29:43;;;;;;;4.03;2.22;;;13.90;99.90;;;;;;5055845;28;20183;-84
2023/02/19 12:32:27;;;;;;;2.50;2.30;;;13.80;99.90;;;;;;5048611;28;20114;-84
2023/02/19 12:35:14;;;;;;;2.58;2.15;;;13.80;99.90;;;;;;5048918;28;20539;-83
2023/02/19 12:38:13;;;;;;;2.88;2.13;;;13.90;99.90;;;;;;5049164;28;20100;-83
2023/02/19 12:41:10;;;;;;;2.75;2.30;;;13.80;99.90;;;;;;5052259;28;20079;-83
2023/02/19 12:43:40;;;;;;;2.30;2.10;;;13.80;99.90;;;;;;5051710;28;20064;-82
2023/02/19 12:46:20;;;;;;;19.20;3.75;;;14.00;99.90;;;;;;5053104;28;20033;-83
2023/02/19 12:48:58;;;;;;;2.65;2.10;;;14.10;99.90;;;;;;5052207;28;20079;-83
2023/02/19 12:51:32;;;;;;;3.10;2.20;;;13.90;99.90;;;;;;5052159;28;20432;-83
2023/02/19 12:54:01;;;;;;;14.02;5.20;;;13.70;99.90;;;;;;5052740;28;20040;-89
2023/02/19 12:56:33;;;;;;;2.90;2.70;;;13.60;99.90;;;;;;5045856;28;20619;-84
2023/02/19 12:59:04;;;;;;;2.92;2.25;;;13.60;99.90;;;;;;5041308;28;20068;-84
2023/02/19 13:01:41;;;;;;;15.93;8.65;;;13.60;99.90;;;;;;5051440;28;20044;-84
2023/02/19 13:04:27;;;;;;;6.32;4.75;;;13.70;99.90;;;;;;5051726;28;20043;-84
2023/02/19 13:07:07;;;;;;;6.45;4.53;;;13.90;99.90;;;;;;5071365;28;20105;-84
2023/02/19 13:09:58;;;;;;;4.10;3.70;;;13.90;99.90;;;;;;5067747;28;20028;-84
2023/02/19 13:12:33;;;;;;;4.70;4.30;;;13.70;99.90;;;;;;5073459;28;20036;-84
2023/02/19 13:15:01;;;;;;;3.95;2.90;;;13.80;99.90;;;;;;5073845;28;20487;-85
2023/02/19 13:17:29;;;;;;;5.10;3.20;;;13.80;99.90;;;;;;5074101;28;20040;-85
2023/02/19 13:20:12;;;;;;;3.22;3.03;;;13.50;99.90;;;;;;5074215;28;20066;-82
2023/02/19 13:26:04;;;;;;;3.03;2.50;;;13.40;99.90;;;;;;5073138;28;20415;-84
2023/02/19 13:28:39;;;;;;;4.28;2.75;;;13.70;99.90;;;;;;5073495;28;20500;-85
2023/02/19 13:31:23;;;;;;;3.28;2.97;;;13.70;99.90;;;;;;5073286;28;20102;-85